sensor_id;sensor_type;location;lat;lon;timestamp;P1;durP1;ratioP1;P2;durP2;ratioP2
26656;SDS011;14279;50.010;8.260;2023-11-22T00:01:04;2.57;;;2.37;;
26656;SDS011;14279;50.010;8.260;2023-11-22T00:03:30;2.70;;;2.47;;
26656;SDS011;14279;50.010;8.260;2023-11-22T00:05:57;4.20;;;3.27;;
26656;SDS011;14279;50.010;8.260;2023-11-22T00:08:22;3.83;;;2.40;;
26656;SDS011;14279;50.010;8.260;2023-11-22T00:10:47;3.27;;;2.20;;
26656;SDS011;14279;50.010;8.260;2023-11-22T00:13:13;4.73;;;2.57;;
26656;SDS011;14279;50.010;8.260;2023-11-22T00:15:38;2.03;;;1.93;;
26656;SDS011;14279;50.010;8.260;2023-11-22T00:18:04;5.63;;;3.00;;
26656;SDS011;14279;50.010;8.260;2023-11-22T00:20:29;4.50;;;2.43;;
26656;SDS011;14279;50.010;8.260;2023-11-22T00:22:55;4.10;;;3.00;;
26656;SDS011;14279;50.010;8.260;2023-11-22T00:25:21;2.10;;;2.00;;
26656;SDS011;14279;50.010;8.260;2023-11-22T00:27:46;2.40;;;2.20;;
26656;SDS011;14279;50.010;8.260;2023-11-22T00:30:12;2.23;;;2.13;;
26656;SDS011;14279;50.010;8.260;2023-11-22T00:32:38;1.83;;;1.73;;
26656;SDS011;14279;50.010;8.260;2023-11-22T00:35:05;3.73;;;2.70;;
26656;SDS011;14279;50.010;8.260;2023-11-22T00:37:32;2.33;;;2.13;;
26656;SDS011;14279;50.010;8.260;2023-11-22T00:39:59;3.93;;;2.60;;
26656;SDS011;14279;50.010;8.260;2023-11-22T00:42:25;2.90;;;2.60;;
26656;SDS011;14279;50.010;8.260;2023-11-22T00:44:52;2.67;;;2.47;;
26656;SDS011;14279;50.010;8.260;2023-11-22T00:47:17;2.93;;;2.40;;
26656;SDS011;14279;50.010;8.260;2023-11-22T00:49:43;2.53;;;2.33;;
26656;SDS011;14279;50.010;8.260;2023-11-22T00:52:08;4.17;;;2.53;;
26656;SDS011;14279;50.010;8.260;2023-11-22T00:54:33;3.23;;;2.77;;
26656;SDS011;14279;50.010;8.260;2023-11-22T00:56:59;6.73;;;2.77;;
26656;SDS011;14279;50.010;8.260;2023-11-22T00:59:25;3.03;;;2.73;;
26656;SDS011;14279;50.010;8.260;2023-11-22T01:01:51;7.77;;;2.90;;
26656;SDS011;14279;50.010;8.260;2023-11-22T01:04:17;3.37;;;3.07;;
26656;SDS011;14279;50.010;8.260;2023-11-22T01:06:42;3.13;;;2.80;;
26656;SDS011;14279;50.010;8.260;2023-11-22T01:09:07;2.90;;;2.70;;
26656;SDS011;14279;50.010;8.260;2023-11-22T01:11:34;5.30;;;3.00;;
26656;SDS011;14279;50.010;8.260;2023-11-22T01:13:59;3.07;;;2.87;;
26656;SDS011;14279;50.010;8.260;2023-11-22T01:16:25;4.23;;;3.20;;
26656;SDS011;14279;50.010;8.260;2023-11-22T01:18:50;6.77;;;3.30;;
26656;SDS011;14279;50.010;8.260;2023-11-22T01:21:17;4.10;;;3.03;;
26656;SDS011;14279;50.010;8.260;2023-11-22T01:23:43;4.93;;;3.40;;
26656;SDS011;14279;50.010;8.260;2023-11-22T01:26:10;4.83;;;3.07;;
26656;SDS011;14279;50.010;8.260;2023-11-22T01:28:35;5.00;;;3.60;;
26656;SDS011;14279;50.010;8.260;2023-11-22T01:31:00;4.33;;;3.80;;
26656;SDS011;14279;50.010;8.260;2023-11-22T01:33:27;3.73;;;3.30;;
26656;SDS011;14279;50.010;8.260;2023-11-22T01:35:52;4.37;;;3.80;;
26656;SDS011;14279;50.010;8.260;2023-11-22T01:38:18;5.10;;;3.80;;
26656;SDS011;14279;50.010;8.260;2023-11-22T01:40:46;4.10;;;3.80;;
26656;SDS011;14279;50.010;8.260;2023-11-22T01:43:13;5.60;;;3.63;;
26656;SDS011;14279;50.010;8.260;2023-11-22T01:45:49;5.00;;;4.33;;
26656;SDS011;14279;50.010;8.260;2023-11-22T01:48:14;4.27;;;3.87;;
26656;SDS011;14279;50.010;8.260;2023-11-22T01:50:40;7.77;;;4.10;;
26656;SDS011;14279;50.010;8.260;2023-11-22T01:53:10;6.03;;;4.30;;
26656;SDS011;14279;50.010;8.260;2023-11-22T01:55:41;4.17;;;3.77;;
26656;SDS011;14279;50.010;8.260;2023-11-22T01:58:08;4.63;;;4.20;;
26656;SDS011;14279;50.010;8.260;2023-11-22T02:00:49;7.00;;;4.10;;
26656;SDS011;14279;50.010;8.260;2023-11-22T02:03:15;6.30;;;4.60;;
26656;SDS011;14279;50.010;8.260;2023-11-22T02:05:47;4.83;;;4.00;;
26656;SDS011;14279;50.010;8.260;2023-11-22T02:08:12;4.70;;;4.00;;
26656;SDS011;14279;50.010;8.260;2023-11-22T02:10:38;5.97;;;4.20;;
26656;SDS011;14279;50.010;8.260;2023-11-22T02:13:04;9.90;;;4.33;;
26656;SDS011;14279;50.010;8.260;2023-11-22T02:15:32;5.97;;;4.20;;
26656;SDS011;14279;50.010;8.260;2023-11-22T02:18:04;6.57;;;5.10;;
26656;SDS011;14279;50.010;8.260;2023-11-22T02:20:31;10.20;;;4.37;;
26656;SDS011;14279;50.010;8.260;2023-11-22T02:22:57;11.40;;;4.30;;
26656;SDS011;14279;50.010;8.260;2023-11-22T02:25:32;6.50;;;4.43;;
26656;SDS011;14279;50.010;8.260;2023-11-22T02:27:58;6.20;;;4.53;;
26656;SDS011;14279;50.010;8.260;2023-11-22T02:30:23;6.60;;;4.73;;
26656;SDS011;14279;50.010;8.260;2023-11-22T02:32:49;8.20;;;4.87;;
26656;SDS011;14279;50.010;8.260;2023-11-22T02:35:14;5.77;;;4.70;;
26656;SDS011;14279;50.010;8.260;2023-11-22T02:37:41;6.20;;;4.90;;
26656;SDS011;14279;50.010;8.260;2023-11-22T02:40:17;6.53;;;4.33;;
26656;SDS011;14279;50.010;8.260;2023-11-22T02:42:45;5.37;;;4.23;;
26656;SDS011;14279;50.010;8.260;2023-11-22T02:45:15;6.20;;;4.03;;
26656;SDS011;14279;50.010;8.260;2023-11-22T02:47:41;8.13;;;4.50;;
26656;SDS011;14279;50.010;8.260;2023-11-22T02:50:06;4.93;;;4.40;;
26656;SDS011;14279;50.010;8.260;2023-11-22T02:52:32;5.30;;;4.00;;
26656;SDS011;14279;50.010;8.260;2023-11-22T02:54:58;5.90;;;4.00;;
26656;SDS011;14279;50.010;8.260;2023-11-22T02:57:23;5.57;;;4.20;;
26656;SDS011;14279;50.010;8.260;2023-11-22T02:59:49;3.63;;;3.33;;
26656;SDS011;14279;50.010;8.260;2023-11-22T03:02:14;5.80;;;4.13;;
26656;SDS011;14279;50.010;8.260;2023-11-22T03:04:42;3.47;;;3.10;;
26656;SDS011;14279;50.010;8.260;2023-11-22T03:07:07;4.90;;;3.70;;
26656;SDS011;14279;50.010;8.260;2023-11-22T03:09:33;4.73;;;3.57;;
26656;SDS011;14279;50.010;8.260;2023-11-22T03:11:58;7.37;;;3.77;;
26656;SDS011;14279;50.010;8.260;2023-11-22T03:14:24;6.73;;;3.57;;
26656;SDS011;14279;50.010;8.260;2023-11-22T03:16:49;3.77;;;3.47;;
26656;SDS011;14279;50.010;8.260;2023-11-22T03:19:14;4.77;;;4.37;;
26656;SDS011;14279;50.010;8.260;2023-11-22T03:21:40;5.20;;;4.10;;
26656;SDS011;14279;50.010;8.260;2023-11-22T03:24:09;5.07;;;3.60;;
26656;SDS011;14279;50.010;8.260;2023-11-22T03:26:35;6.23;;;4.43;;
26656;SDS011;14279;50.010;8.260;2023-11-22T03:29:00;7.47;;;4.77;;
26656;SDS011;14279;50.010;8.260;2023-11-22T03:31:29;6.00;;;4.27;;
26656;SDS011;14279;50.010;8.260;2023-11-22T03:33:54;7.33;;;4.37;;
26656;SDS011;14279;50.010;8.260;2023-11-22T03:36:22;8.10;;;4.60;;
26656;SDS011;14279;50.010;8.260;2023-11-22T03:38:48;7.47;;;5.33;;
26656;SDS011;14279;50.010;8.260;2023-11-22T03:41:13;6.83;;;4.80;;
26656;SDS011;14279;50.010;8.260;2023-11-22T03:43:39;9.27;;;4.80;;
26656;SDS011;14279;50.010;8.260;2023-11-22T03:46:04;8.90;;;4.53;;
26656;SDS011;14279;50.010;8.260;2023-11-22T03:48:29;9.70;;;5.80;;
26656;SDS011;14279;50.010;8.260;2023-11-22T03:50:54;10.73;;;4.93;;
26656;SDS011;14279;50.010;8.260;2023-11-22T03:53:20;7.13;;;4.80;;
26656;SDS011;14279;50.010;8.260;2023-11-22T03:55:47;7.30;;;4.70;;
26656;SDS011;14279;50.010;8.260;2023-11-22T03:58:13;10.43;;;4.90;;
26656;SDS011;14279;50.010;8.260;2023-11-22T04:00:38;5.80;;;4.87;;
26656;SDS011;14279;50.010;8.260;2023-11-22T04:03:03;10.00;;;5.63;;
26656;SDS011;14279;50.010;8.260;2023-11-22T04:05:29;12.87;;;4.87;;
26656;SDS011;14279;50.010;8.260;2023-11-22T04:07:54;6.63;;;4.07;;
26656;SDS011;14279;50.010;8.260;2023-11-22T04:10:21;4.57;;;3.40;;
26656;SDS011;14279;50.010;8.260;2023-11-22T04:12:47;5.27;;;4.20;;
26656;SDS011;14279;50.010;8.260;2023-11-22T04:15:13;8.83;;;4.33;;
26656;SDS011;14279;50.010;8.260;2023-11-22T04:17:39;5.43;;;3.83;;
26656;SDS011;14279;50.010;8.260;2023-11-22T04:20:08;5.93;;;4.47;;
26656;SDS011;14279;50.010;8.260;2023-11-22T04:22:38;4.53;;;3.30;;
26656;SDS011;14279;50.010;8.260;2023-11-22T04:25:05;5.60;;;3.30;;
26656;SDS011;14279;50.010;8.260;2023-11-22T04:27:30;4.20;;;3.20;;
26656;SDS011;14279;50.010;8.260;2023-11-22T04:29:56;3.10;;;2.80;;
26656;SDS011;14279;50.010;8.260;2023-11-22T04:32:21;3.60;;;3.30;;
26656;SDS011;14279;50.010;8.260;2023-11-22T04:34:47;5.70;;;3.33;;
26656;SDS011;14279;50.010;8.260;2023-11-22T04:37:12;3.53;;;2.80;;
26656;SDS011;14279;50.010;8.260;2023-11-22T04:39:38;6.40;;;3.60;;
26656;SDS011;14279;50.010;8.260;2023-11-22T04:42:03;6.73;;;3.50;;
26656;SDS011;14279;50.010;8.260;2023-11-22T04:44:29;2.77;;;2.57;;
26656;SDS011;14279;50.010;8.260;2023-11-22T04:46:54;5.87;;;3.57;;
26656;SDS011;14279;50.010;8.260;2023-11-22T04:49:19;3.87;;;3.47;;
26656;SDS011;14279;50.010;8.260;2023-11-22T04:51:45;4.20;;;2.90;;
26656;SDS011;14279;50.010;8.260;2023-11-22T04:54:10;4.23;;;3.03;;
26656;SDS011;14279;50.010;8.260;2023-11-22T04:56:36;7.30;;;3.77;;
26656;SDS011;14279;50.010;8.260;2023-11-22T04:59:01;5.57;;;3.70;;
26656;SDS011;14279;50.010;8.260;2023-11-22T05:01:31;5.67;;;4.00;;
26656;SDS011;14279;50.010;8.260;2023-11-22T05:03:57;5.27;;;3.33;;
26656;SDS011;14279;50.010;8.260;2023-11-22T05:06:23;6.10;;;3.50;;
26656;SDS011;14279;50.010;8.260;2023-11-22T05:08:49;4.50;;;4.07;;
26656;SDS011;14279;50.010;8.260;2023-11-22T05:11:14;8.00;;;5.07;;
26656;SDS011;14279;50.010;8.260;2023-11-22T05:13:41;6.90;;;4.47;;
26656;SDS011;14279;50.010;8.260;2023-11-22T05:16:08;13.30;;;4.30;;
26656;SDS011;14279;50.010;8.260;2023-11-22T05:18:33;5.93;;;4.83;;
26656;SDS011;14279;50.010;8.260;2023-11-22T05:20:59;9.30;;;3.77;;
26656;SDS011;14279;50.010;8.260;2023-11-22T05:23:24;11.07;;;4.80;;
26656;SDS011;14279;50.010;8.260;2023-11-22T05:25:50;7.80;;;4.07;;
26656;SDS011;14279;50.010;8.260;2023-11-22T05:28:15;7.53;;;4.93;;
26656;SDS011;14279;50.010;8.260;2023-11-22T05:30:40;8.83;;;4.10;;
26656;SDS011;14279;50.010;8.260;2023-11-22T05:33:06;6.20;;;4.50;;
26656;SDS011;14279;50.010;8.260;2023-11-22T05:35:32;5.70;;;4.20;;
26656;SDS011;14279;50.010;8.260;2023-11-22T05:37:57;7.80;;;5.20;;
26656;SDS011;14279;50.010;8.260;2023-11-22T05:40:23;8.33;;;4.83;;
26656;SDS011;14279;50.010;8.260;2023-11-22T05:42:48;6.77;;;4.20;;
26656;SDS011;14279;50.010;8.260;2023-11-22T05:45:14;7.07;;;4.70;;
26656;SDS011;14279;50.010;8.260;2023-11-22T05:47:39;6.10;;;4.80;;
26656;SDS011;14279;50.010;8.260;2023-11-22T05:50:05;9.60;;;3.80;;
26656;SDS011;14279;50.010;8.260;2023-11-22T05:52:30;6.87;;;4.90;;
26656;SDS011;14279;50.010;8.260;2023-11-22T05:54:56;6.07;;;4.60;;
26656;SDS011;14279;50.010;8.260;2023-11-22T05:57:21;9.43;;;4.93;;
26656;SDS011;14279;50.010;8.260;2023-11-22T05:59:47;16.53;;;5.10;;
26656;SDS011;14279;50.010;8.260;2023-11-22T06:02:12;14.83;;;5.70;;
26656;SDS011;14279;50.010;8.260;2023-11-22T06:04:37;8.17;;;5.37;;
26656;SDS011;14279;50.010;8.260;2023-11-22T06:07:03;8.60;;;4.83;;
26656;SDS011;14279;50.010;8.260;2023-11-22T06:09:29;7.47;;;4.50;;
26656;SDS011;14279;50.010;8.260;2023-11-22T06:11:55;7.77;;;4.70;;
26656;SDS011;14279;50.010;8.260;2023-11-22T06:14:20;5.80;;;3.53;;
26656;SDS011;14279;50.010;8.260;2023-11-22T06:16:46;4.30;;;3.90;;
26656;SDS011;14279;50.010;8.260;2023-11-22T06:19:11;6.07;;;4.40;;
26656;SDS011;14279;50.010;8.260;2023-11-22T06:21:36;4.57;;;3.67;;
26656;SDS011;14279;50.010;8.260;2023-11-22T06:24:04;7.80;;;4.00;;
26656;SDS011;14279;50.010;8.260;2023-11-22T06:26:34;7.30;;;4.70;;
26656;SDS011;14279;50.010;8.260;2023-11-22T06:29:00;6.00;;;3.80;;
26656;SDS011;14279;50.010;8.260;2023-11-22T06:31:25;4.00;;;3.33;;
26656;SDS011;14279;50.010;8.260;2023-11-22T06:33:53;3.93;;;3.53;;
26656;SDS011;14279;50.010;8.260;2023-11-22T06:36:19;6.90;;;4.00;;
26656;SDS011;14279;50.010;8.260;2023-11-22T06:38:44;4.67;;;3.60;;
26656;SDS011;14279;50.010;8.260;2023-11-22T06:41:11;3.97;;;3.30;;
26656;SDS011;14279;50.010;8.260;2023-11-22T06:43:37;5.90;;;3.80;;
26656;SDS011;14279;50.010;8.260;2023-11-22T06:46:02;4.60;;;3.50;;
26656;SDS011;14279;50.010;8.260;2023-11-22T06:48:30;5.80;;;3.97;;
26656;SDS011;14279;50.010;8.260;2023-11-22T06:50:56;3.93;;;3.53;;
26656;SDS011;14279;50.010;8.260;2023-11-22T06:53:24;5.00;;;3.80;;
26656;SDS011;14279;50.010;8.260;2023-11-22T06:56:08;4.83;;;3.73;;
26656;SDS011;14279;50.010;8.260;2023-11-22T07:20:13;3.60;;;2.77;;
26656;SDS011;14279;50.010;8.260;2023-11-22T07:22:42;3.73;;;3.17;;
26656;SDS011;14279;50.010;8.260;2023-11-22T07:25:08;9.97;;;3.30;;
26656;SDS011;14279;50.010;8.260;2023-11-22T07:27:46;7.30;;;3.23;;
26656;SDS011;14279;50.010;8.260;2023-11-22T07:30:13;4.37;;;3.17;;
26656;SDS011;14279;50.010;8.260;2023-11-22T07:32:40;3.50;;;3.20;;
26656;SDS011;14279;50.010;8.260;2023-11-22T07:35:13;3.30;;;3.00;;
26656;SDS011;14279;50.010;8.260;2023-11-22T07:37:41;3.30;;;3.00;;
26656;SDS011;14279;50.010;8.260;2023-11-22T07:40:28;6.73;;;3.30;;
26656;SDS011;14279;50.010;8.260;2023-11-22T07:43:28;3.97;;;2.93;;
26656;SDS011;14279;50.010;8.260;2023-11-22T07:46:05;4.47;;;3.67;;
26656;SDS011;14279;50.010;8.260;2023-11-22T07:53:13;6.00;;;3.87;;
26656;SDS011;14279;50.010;8.260;2023-11-22T07:55:39;3.87;;;3.43;;
26656;SDS011;14279;50.010;8.260;2023-11-22T08:42:33;5.67;;;4.33;;
26656;SDS011;14279;50.010;8.260;2023-11-22T08:46:20;4.30;;;3.63;;
26656;SDS011;14279;50.010;8.260;2023-11-22T08:49:03;6.10;;;4.13;;
26656;SDS011;14279;50.010;8.260;2023-11-22T08:52:04;5.70;;;3.60;;
26656;SDS011;14279;50.010;8.260;2023-11-22T08:55:15;3.60;;;3.30;;
26656;SDS011;14279;50.010;8.260;2023-11-22T08:58:06;5.13;;;3.77;;
26656;SDS011;14279;50.010;8.260;2023-11-22T09:01:47;4.40;;;3.50;;
26656;SDS011;14279;50.010;8.260;2023-11-22T09:15:42;4.57;;;3.50;;
26656;SDS011;14279;50.010;8.260;2023-11-22T09:35:02;5.70;;;4.53;;
26656;SDS011;14279;50.010;8.260;2023-11-22T09:37:38;4.00;;;3.40;;
26656;SDS011;14279;50.010;8.260;2023-11-22T09:40:16;5.20;;;3.80;;
26656;SDS011;14279;50.010;8.260;2023-11-22T09:43:58;8.30;;;3.47;;
26656;SDS011;14279;50.010;8.260;2023-11-22T09:54:54;3.90;;;3.50;;
26656;SDS011;14279;50.010;8.260;2023-11-22T10:01:25;3.77;;;3.27;;
26656;SDS011;14279;50.010;8.260;2023-11-22T10:12:37;4.30;;;3.10;;
26656;SDS011;14279;50.010;8.260;2023-11-22T10:16:08;5.23;;;3.50;;
26656;SDS011;14279;50.010;8.260;2023-11-22T10:19:20;3.50;;;3.17;;
26656;SDS011;14279;50.010;8.260;2023-11-22T10:29:53;6.00;;;3.37;;
26656;SDS011;14279;50.010;8.260;2023-11-22T10:33:58;4.53;;;3.67;;
26656;SDS011;14279;50.010;8.260;2023-11-22T10:37:20;3.43;;;3.00;;
26656;SDS011;14279;50.010;8.260;2023-11-22T10:39:50;3.60;;;3.30;;
26656;SDS011;14279;50.010;8.260;2023-11-22T10:42:16;4.80;;;2.97;;
26656;SDS011;14279;50.010;8.260;2023-11-22T10:44:42;3.93;;;3.10;;
26656;SDS011;14279;50.010;8.260;2023-11-22T10:47:07;5.40;;;3.87;;
26656;SDS011;14279;50.010;8.260;2023-11-22T10:49:33;3.23;;;2.93;;
26656;SDS011;14279;50.010;8.260;2023-11-22T10:51:58;3.80;;;3.10;;
26656;SDS011;14279;50.010;8.260;2023-11-22T10:55:26;3.47;;;3.17;;
26656;SDS011;14279;50.010;8.260;2023-11-22T11:03:08;3.13;;;2.83;;
26656;SDS011;14279;50.010;8.260;2023-11-22T11:05:41;3.43;;;3.07;;
26656;SDS011;14279;50.010;8.260;2023-11-22T11:08:27;3.97;;;3.57;;
26656;SDS011;14279;50.010;8.260;2023-11-22T11:14:21;3.60;;;2.70;;
26656;SDS011;14279;50.010;8.260;2023-11-22T11:16:47;5.37;;;3.40;;
26656;SDS011;14279;50.010;8.260;2023-11-22T11:19:15;4.80;;;3.50;;
26656;SDS011;14279;50.010;8.260;2023-11-22T11:21:42;4.77;;;3.10;;
26656;SDS011;14279;50.010;8.260;2023-11-22T11:24:08;5.30;;;3.67;;
26656;SDS011;14279;50.010;8.260;2023-11-22T11:26:33;8.60;;;4.00;;
26656;SDS011;14279;50.010;8.260;2023-11-22T11:29:02;5.97;;;3.83;;
26656;SDS011;14279;50.010;8.260;2023-11-22T11:31:32;5.50;;;3.50;;
26656;SDS011;14279;50.010;8.260;2023-11-22T11:34:01;5.23;;;3.00;;
26656;SDS011;14279;50.010;8.260;2023-11-22T11:37:15;3.90;;;3.30;;
26656;SDS011;14279;50.010;8.260;2023-11-22T11:39:25;5.47;;;3.17;;
26656;SDS011;14279;50.010;8.260;2023-11-22T11:42:20;3.37;;;3.13;;
26656;SDS011;14279;50.010;8.260;2023-11-22T11:45:26;4.27;;;2.97;;
26656;SDS011;14279;50.010;8.260;2023-11-22T11:47:56;3.33;;;2.77;;
26656;SDS011;14279;50.010;8.260;2023-11-22T11:50:22;4.80;;;3.00;;
26656;SDS011;14279;50.010;8.260;2023-11-22T11:52:47;5.37;;;3.00;;
26656;SDS011;14279;50.010;8.260;2023-11-22T11:58:44;5.63;;;3.53;;
26656;SDS011;14279;50.010;8.260;2023-11-22T12:01:16;3.47;;;3.17;;
26656;SDS011;14279;50.010;8.260;2023-11-22T12:03:42;5.23;;;3.50;;
26656;SDS011;14279;50.010;8.260;2023-11-22T12:06:14;5.20;;;3.80;;
26656;SDS011;14279;50.010;8.260;2023-11-22T12:08:40;3.47;;;3.17;;
26656;SDS011;14279;50.010;8.260;2023-11-22T12:11:05;4.17;;;3.57;;
26656;SDS011;14279;50.010;8.260;2023-11-22T12:13:34;4.30;;;3.03;;
26656;SDS011;14279;50.010;8.260;2023-11-22T12:16:03;3.17;;;2.97;;
26656;SDS011;14279;50.010;8.260;2023-11-22T12:18:38;3.87;;;3.27;;
26656;SDS011;14279;50.010;8.260;2023-11-22T12:21:10;5.80;;;3.43;;
26656;SDS011;14279;50.010;8.260;2023-11-22T12:23:39;3.97;;;3.30;;
26656;SDS011;14279;50.010;8.260;2023-11-22T12:26:09;3.90;;;3.50;;
26656;SDS011;14279;50.010;8.260;2023-11-22T12:28:36;10.03;;;4.07;;
26656;SDS011;14279;50.010;8.260;2023-11-22T12:31:08;3.27;;;2.97;;
26656;SDS011;14279;50.010;8.260;2023-11-22T12:33:38;4.60;;;3.30;;
26656;SDS011;14279;50.010;8.260;2023-11-22T12:36:06;5.87;;;4.20;;
26656;SDS011;14279;50.010;8.260;2023-11-22T12:38:34;3.67;;;3.33;;
26656;SDS011;14279;50.010;8.260;2023-11-22T12:41:00;4.50;;;3.30;;
26656;SDS011;14279;50.010;8.260;2023-11-22T12:43:28;3.83;;;3.53;;
26656;SDS011;14279;50.010;8.260;2023-11-22T12:46:03;4.80;;;3.30;;
26656;SDS011;14279;50.010;8.260;2023-11-22T12:48:36;7.23;;;3.77;;
26656;SDS011;14279;50.010;8.260;2023-11-22T12:51:02;3.50;;;3.20;;
26656;SDS011;14279;50.010;8.260;2023-11-22T12:53:27;4.57;;;3.77;;
26656;SDS011;14279;50.010;8.260;2023-11-22T12:55:53;6.50;;;3.73;;
26656;SDS011;14279;50.010;8.260;2023-11-22T12:58:20;3.53;;;3.20;;
26656;SDS011;14279;50.010;8.260;2023-11-22T13:00:47;5.83;;;4.00;;
26656;SDS011;14279;50.010;8.260;2023-11-22T13:03:14;3.60;;;3.30;;
26656;SDS011;14279;50.010;8.260;2023-11-22T13:05:40;4.97;;;3.90;;
26656;SDS011;14279;50.010;8.260;2023-11-22T13:08:09;4.67;;;4.00;;
26656;SDS011;14279;50.010;8.260;2023-11-22T13:10:37;3.50;;;3.20;;
26656;SDS011;14279;50.010;8.260;2023-11-22T13:13:03;4.60;;;4.20;;
26656;SDS011;14279;50.010;8.260;2023-11-22T13:15:28;5.43;;;4.00;;
26656;SDS011;14279;50.010;8.260;2023-11-22T13:17:55;4.37;;;3.97;;
26656;SDS011;14279;50.010;8.260;2023-11-22T13:20:21;4.23;;;3.70;;
26656;SDS011;14279;50.010;8.260;2023-11-22T13:22:48;5.33;;;4.03;;
26656;SDS011;14279;50.010;8.260;2023-11-22T13:25:13;6.53;;;3.47;;
26656;SDS011;14279;50.010;8.260;2023-11-22T13:27:39;4.60;;;3.60;;
26656;SDS011;14279;50.010;8.260;2023-11-22T13:30:06;4.67;;;3.50;;
26656;SDS011;14279;50.010;8.260;2023-11-22T13:32:31;3.63;;;3.30;;
26656;SDS011;14279;50.010;8.260;2023-11-22T13:34:57;5.23;;;4.03;;
26656;SDS011;14279;50.010;8.260;2023-11-22T13:37:26;5.87;;;3.97;;
26656;SDS011;14279;50.010;8.260;2023-11-22T13:39:54;3.77;;;3.30;;
26656;SDS011;14279;50.010;8.260;2023-11-22T13:42:19;4.97;;;3.63;;
26656;SDS011;14279;50.010;8.260;2023-11-22T13:44:45;5.63;;;4.00;;
26656;SDS011;14279;50.010;8.260;2023-11-22T13:50:08;4.70;;;3.47;;
26656;SDS011;14279;50.010;8.260;2023-11-22T13:57:22;4.53;;;3.50;;
26656;SDS011;14279;50.010;8.260;2023-11-22T14:04:02;4.97;;;4.13;;
26656;SDS011;14279;50.010;8.260;2023-11-22T14:06:27;5.10;;;4.10;;
26656;SDS011;14279;50.010;8.260;2023-11-22T14:08:53;8.57;;;3.67;;
26656;SDS011;14279;50.010;8.260;2023-11-22T14:11:18;4.13;;;3.37;;
26656;SDS011;14279;50.010;8.260;2023-11-22T14:13:43;5.83;;;3.80;;
26656;SDS011;14279;50.010;8.260;2023-11-22T14:16:11;3.90;;;3.50;;
26656;SDS011;14279;50.010;8.260;2023-11-22T14:18:38;7.33;;;3.87;;
26656;SDS011;14279;50.010;8.260;2023-11-22T14:21:04;4.20;;;3.80;;
26656;SDS011;14279;50.010;8.260;2023-11-22T14:23:29;4.23;;;3.20;;
26656;SDS011;14279;50.010;8.260;2023-11-22T14:25:54;5.03;;;3.90;;
26656;SDS011;14279;50.010;8.260;2023-11-22T14:28:20;4.33;;;3.83;;
26656;SDS011;14279;50.010;8.260;2023-11-22T14:30:45;3.93;;;3.53;;
26656;SDS011;14279;50.010;8.260;2023-11-22T14:33:10;5.50;;;3.50;;
26656;SDS011;14279;50.010;8.260;2023-11-22T14:35:36;6.80;;;3.83;;
26656;SDS011;14279;50.010;8.260;2023-11-22T14:38:01;4.33;;;3.73;;
26656;SDS011;14279;50.010;8.260;2023-11-22T14:40:28;4.07;;;3.53;;
26656;SDS011;14279;50.010;8.260;2023-11-22T14:42:56;3.83;;;3.43;;
26656;SDS011;14279;50.010;8.260;2023-11-22T14:45:21;4.53;;;3.93;;
26656;SDS011;14279;50.010;8.260;2023-11-22T14:47:47;4.43;;;3.37;;
26656;SDS011;14279;50.010;8.260;2023-11-22T14:50:15;4.30;;;3.43;;
26656;SDS011;14279;50.010;8.260;2023-11-22T14:52:41;4.57;;;4.00;;
26656;SDS011;14279;50.010;8.260;2023-11-22T14:55:06;6.37;;;4.23;;
26656;SDS011;14279;50.010;8.260;2023-11-22T14:57:32;4.13;;;3.73;;
26656;SDS011;14279;50.010;8.260;2023-11-22T14:59:57;8.53;;;3.73;;
26656;SDS011;14279;50.010;8.260;2023-11-22T15:02:23;4.87;;;3.83;;
26656;SDS011;14279;50.010;8.260;2023-11-22T15:04:48;6.70;;;3.50;;
26656;SDS011;14279;50.010;8.260;2023-11-22T15:07:14;5.10;;;4.20;;
26656;SDS011;14279;50.010;8.260;2023-11-22T15:09:42;6.83;;;4.50;;
26656;SDS011;14279;50.010;8.260;2023-11-22T15:12:11;6.40;;;4.13;;
26656;SDS011;14279;50.010;8.260;2023-11-22T15:14:36;4.70;;;3.93;;
26656;SDS011;14279;50.010;8.260;2023-11-22T15:17:02;5.30;;;4.23;;
26656;SDS011;14279;50.010;8.260;2023-11-22T15:19:29;5.27;;;4.77;;
26656;SDS011;14279;50.010;8.260;2023-11-22T15:21:57;4.93;;;3.97;;
26656;SDS011;14279;50.010;8.260;2023-11-22T15:24:23;6.07;;;3.60;;
26656;SDS011;14279;50.010;8.260;2023-11-22T15:26:50;6.57;;;3.90;;
26656;SDS011;14279;50.010;8.260;2023-11-22T15:29:50;4.60;;;4.13;;
26656;SDS011;14279;50.010;8.260;2023-11-22T15:32:24;8.00;;;3.80;;
26656;SDS011;14279;50.010;8.260;2023-11-22T15:34:50;5.53;;;4.00;;
26656;SDS011;14279;50.010;8.260;2023-11-22T15:37:15;6.83;;;4.30;;
26656;SDS011;14279;50.010;8.260;2023-11-22T15:39:41;5.63;;;4.70;;
26656;SDS011;14279;50.010;8.260;2023-11-22T15:42:07;4.53;;;4.13;;
26656;SDS011;14279;50.010;8.260;2023-11-22T15:44:32;7.40;;;4.80;;
26656;SDS011;14279;50.010;8.260;2023-11-22T15:46:58;4.97;;;3.87;;
26656;SDS011;14279;50.010;8.260;2023-11-22T15:49:24;7.63;;;4.50;;
26656;SDS011;14279;50.010;8.260;2023-11-22T15:51:49;9.40;;;4.40;;
26656;SDS011;14279;50.010;8.260;2023-11-22T15:54:15;5.07;;;4.00;;
26656;SDS011;14279;50.010;8.260;2023-11-22T15:56:43;4.43;;;4.03;;
26656;SDS011;14279;50.010;8.260;2023-11-22T15:59:09;5.73;;;4.37;;
26656;SDS011;14279;50.010;8.260;2023-11-22T16:01:34;6.03;;;4.73;;
26656;SDS011;14279;50.010;8.260;2023-11-22T16:04:00;4.40;;;4.00;;
26656;SDS011;14279;50.010;8.260;2023-11-22T16:06:25;7.23;;;4.20;;
26656;SDS011;14279;50.010;8.260;2023-11-22T16:09:01;4.70;;;4.00;;
26656;SDS011;14279;50.010;8.260;2023-11-22T16:15:35;9.50;;;4.80;;
26656;SDS011;14279;50.010;8.260;2023-11-22T16:18:21;8.00;;;4.60;;
26656;SDS011;14279;50.010;8.260;2023-11-22T16:20:54;5.70;;;4.10;;
26656;SDS011;14279;50.010;8.260;2023-11-22T16:23:32;6.77;;;4.43;;
26656;SDS011;14279;50.010;8.260;2023-11-22T16:26:00;8.60;;;4.67;;
26656;SDS011;14279;50.010;8.260;2023-11-22T16:28:36;5.40;;;4.33;;
26656;SDS011;14279;50.010;8.260;2023-11-22T16:31:02;7.60;;;4.30;;
26656;SDS011;14279;50.010;8.260;2023-11-22T16:33:33;5.97;;;4.83;;
26656;SDS011;14279;50.010;8.260;2023-11-22T16:36:10;6.43;;;4.60;;
26656;SDS011;14279;50.010;8.260;2023-11-22T16:38:37;5.23;;;4.73;;
26656;SDS011;14279;50.010;8.260;2023-11-22T16:41:03;5.13;;;4.63;;
26656;SDS011;14279;50.010;8.260;2023-11-22T16:43:29;6.37;;;3.97;;
26656;SDS011;14279;50.010;8.260;2023-11-22T16:45:55;12.03;;;5.40;;
26656;SDS011;14279;50.010;8.260;2023-11-22T16:48:29;6.00;;;4.07;;
26656;SDS011;14279;50.010;8.260;2023-11-22T16:50:54;9.20;;;5.10;;
26656;SDS011;14279;50.010;8.260;2023-11-22T16:53:22;6.47;;;5.17;;
26656;SDS011;14279;50.010;8.260;2023-11-22T16:55:50;7.20;;;5.43;;
26656;SDS011;14279;50.010;8.260;2023-11-22T16:58:16;5.77;;;5.17;;
26656;SDS011;14279;50.010;8.260;2023-11-22T17:01:08;9.63;;;5.40;;
26656;SDS011;14279;50.010;8.260;2023-11-22T17:03:37;6.20;;;4.70;;
26656;SDS011;14279;50.010;8.260;2023-11-22T17:06:02;11.80;;;5.30;;
26656;SDS011;14279;50.010;8.260;2023-11-22T17:08:28;5.67;;;4.97;;
26656;SDS011;14279;50.010;8.260;2023-11-22T17:14:59;7.47;;;5.63;;
26656;SDS011;14279;50.010;8.260;2023-11-22T17:17:24;9.43;;;5.57;;
26656;SDS011;14279;50.010;8.260;2023-11-22T17:19:53;6.90;;;5.10;;
26656;SDS011;14279;50.010;8.260;2023-11-22T17:22:18;6.80;;;5.43;;
26656;SDS011;14279;50.010;8.260;2023-11-22T17:24:44;7.30;;;5.17;;
26656;SDS011;14279;50.010;8.260;2023-11-22T17:27:11;5.03;;;4.43;;
26656;SDS011;14279;50.010;8.260;2023-11-22T17:29:36;8.40;;;5.43;;
26656;SDS011;14279;50.010;8.260;2023-11-22T17:32:01;6.40;;;5.20;;
26656;SDS011;14279;50.010;8.260;2023-11-22T17:34:27;6.67;;;5.40;;
26656;SDS011;14279;50.010;8.260;2023-11-22T17:36:57;7.13;;;5.03;;
26656;SDS011;14279;50.010;8.260;2023-11-22T17:39:23;5.57;;;4.93;;
26656;SDS011;14279;50.010;8.260;2023-11-22T17:41:49;6.57;;;5.27;;